createdAt,value
2023-05-14T00:03:27.396Z,12.52
2023-05-14T00:05:54.042Z,12.23
2023-05-14T00:08:20.624Z,12.88
2023-05-14T00:13:13.481Z,11.73
2023-05-14T00:18:07.134Z,12.82
2023-05-14T00:20:33.721Z,13.40
2023-05-14T00:25:28.069Z,14.23
2023-05-14T00:27:54.606Z,12.45
2023-05-14T00:32:47.805Z,13.00
2023-05-14T00:35:14.323Z,13.63
2023-05-14T00:40:08.622Z,13.85
2023-05-14T00:42:35.162Z,13.75
2023-05-14T00:47:28.258Z,12.68
2023-05-14T00:49:54.822Z,13.32
2023-05-14T00:54:49.008Z,12.90
2023-05-14T00:57:16.264Z,12.57
2023-05-14T01:02:09.339Z,12.60
2023-05-14T01:07:13.832Z,12.68
2023-05-14T01:09:44.498Z,13.50
2023-05-14T01:12:32.740Z,13.10
2023-05-14T01:15:21.086Z,12.75
2023-05-14T01:17:56.779Z,11.63
2023-05-14T01:20:23.754Z,13.15
2023-05-14T01:22:50.487Z,11.68
2023-05-14T01:27:59.206Z,12.52
2023-05-14T01:30:34.047Z,11.48
2023-05-14T01:33:03.572Z,12.82
2023-05-14T01:35:30.834Z,11.80
2023-05-14T01:38:00.509Z,11.63
2023-05-14T01:40:27.506Z,13.52
2023-05-14T01:42:55.313Z,11.93
2023-05-14T01:45:22.660Z,12.43
2023-05-14T01:47:49.530Z,12.90
2023-05-14T01:50:16.339Z,13.40
2023-05-14T01:52:43.162Z,14.18
2023-05-14T01:55:10.160Z,11.82
2023-05-14T01:57:36.783Z,11.43
2023-05-14T02:00:04.329Z,11.35
2023-05-14T02:02:40.676Z,11.57
2023-05-14T02:05:10.396Z,12.68
2023-05-14T02:07:36.897Z,11.02
2023-05-14T02:12:30.378Z,11.03
2023-05-14T02:17:26.407Z,10.88
2023-05-14T02:19:52.995Z,11.55
2023-05-14T02:24:45.967Z,10.35
2023-05-14T02:29:39.875Z,10.88
2023-05-14T02:32:06.873Z,10.68
2023-05-14T02:34:34.498Z,11.68
2023-05-14T02:37:01.223Z,11.25
2023-05-14T02:39:27.708Z,12.13
2023-05-14T02:44:20.645Z,11.80
2023-05-14T02:46:47.874Z,11.38
2023-05-14T02:49:14.617Z,11.73
2023-05-14T02:51:41.256Z,11.88
2023-05-14T02:56:34.210Z,10.43
2023-05-14T03:01:27.700Z,10.82
2023-05-14T03:03:54.613Z,10.93
2023-05-14T03:08:47.600Z,10.20
2023-05-14T03:13:40.535Z,10.93
2023-05-14T03:18:34.804Z,10.10
2023-05-14T03:21:01.530Z,11.73
2023-05-14T03:23:28.061Z,10.60
2023-05-14T03:28:20.940Z,10.73
2023-05-14T03:30:47.521Z,11.90
2023-05-14T03:33:14.050Z,12.60
2023-05-14T03:38:07.497Z,11.75
2023-05-14T03:40:34.388Z,11.07
2023-05-14T03:45:28.675Z,12.15
2023-05-14T03:47:55.227Z,12.93
2023-05-14T03:50:25.351Z,12.10
2023-05-14T03:52:52.712Z,11.18
2023-05-14T03:55:19.912Z,11.30
2023-05-14T03:57:47.654Z,11.02
2023-05-14T04:00:14.805Z,10.55
2023-05-14T04:02:44.245Z,11.82
2023-05-14T04:05:11.120Z,12.40
2023-05-14T04:07:37.722Z,11.93
2023-05-14T04:12:34.022Z,11.52
2023-05-14T04:15:01.054Z,12.93
2023-05-14T04:17:27.648Z,12.95
2023-05-14T04:19:54.164Z,11.40
2023-05-14T04:22:20.636Z,9.88
2023-05-14T04:27:22.520Z,11.55
2023-05-14T04:29:50.353Z,11.52
2023-05-14T04:32:17.561Z,10.98
2023-05-14T04:34:44.246Z,12.75
2023-05-14T04:37:10.722Z,11.52
2023-05-14T04:39:38.483Z,10.90
2023-05-14T04:42:06.582Z,11.45
2023-05-14T04:44:34.536Z,11.05
2023-05-14T04:47:01.002Z,11.25
2023-05-14T04:51:54.121Z,11.45
2023-05-14T04:56:47.742Z,11.60
2023-05-14T04:59:14.247Z,10.80
2023-05-14T05:04:07.275Z,10.25
2023-05-14T05:09:02.007Z,9.80
2023-05-14T05:11:28.822Z,11.70
2023-05-14T05:16:21.760Z,10.88
2023-05-14T05:18:48.357Z,9.48
2023-05-14T05:23:41.302Z,7.70
2023-05-14T05:28:34.256Z,7.97
2023-05-14T05:33:27.242Z,8.80
2023-05-14T05:35:53.704Z,8.23
2023-05-14T05:40:46.582Z,7.22
2023-05-14T05:45:40.886Z,6.03
2023-05-14T05:48:07.451Z,6.10
2023-05-14T05:50:33.953Z,7.07
2023-05-14T05:55:28.761Z,7.28
2023-05-14T05:57:55.625Z,7.43
2023-05-14T06:05:15.313Z,7.53
2023-05-14T06:07:41.862Z,6.82
2023-05-14T06:12:35.292Z,7.30
2023-05-14T06:15:01.841Z,7.43
2023-05-14T06:19:54.819Z,7.57
2023-05-14T06:24:48.145Z,8.05
2023-05-14T06:27:14.865Z,7.00
2023-05-14T06:29:41.410Z,7.38
2023-05-14T06:34:34.671Z,6.87
2023-05-14T06:39:29.481Z,6.20
2023-05-14T06:41:55.938Z,6.65
2023-05-14T06:44:23.276Z,5.30
2023-05-14T06:46:49.741Z,6.72
2023-05-14T06:49:16.453Z,5.55
2023-05-14T06:51:43.213Z,6.53
2023-05-14T06:56:36.095Z,5.90
2023-05-14T07:01:29.354Z,4.55
2023-05-14T07:03:56.294Z,5.18
2023-05-14T07:06:23.684Z,5.28
2023-05-14T07:08:50.165Z,5.13
2023-05-14T07:13:43.209Z,5.45
2023-05-14T07:18:36.941Z,5.75
2023-05-14T07:21:06.485Z,5.13
2023-05-14T07:23:36.112Z,5.53
2023-05-14T07:26:03.433Z,15.23
2023-05-14T07:28:29.995Z,5.45
2023-05-14T07:33:24.265Z,5.50
2023-05-14T07:35:50.939Z,7.63
2023-05-14T07:38:17.666Z,5.78
2023-05-14T07:40:44.173Z,5.47
2023-05-14T07:45:38.954Z,4.68
2023-05-14T07:48:05.634Z,7.95
2023-05-14T07:50:32.356Z,5.20
2023-05-14T07:52:58.800Z,4.20
2023-05-14T07:55:25.901Z,4.10
2023-05-14T07:57:52.358Z,5.00
2023-05-14T08:02:45.633Z,4.95
2023-05-14T08:05:12.191Z,4.90
2023-05-14T08:10:06.908Z,5.05
2023-05-14T08:12:33.542Z,6.38
2023-05-14T08:14:59.987Z,9.63
2023-05-14T08:17:27.515Z,13.02
2023-05-14T08:19:54.237Z,12.90
2023-05-14T08:22:21.759Z,13.73
2023-05-14T08:24:48.871Z,13.73
2023-05-14T08:27:16.568Z,11.38
2023-05-14T08:29:43.159Z,5.72
2023-05-14T08:32:19.756Z,12.88
2023-05-14T08:34:49.609Z,8.50
2023-05-14T08:39:42.447Z,3.65
2023-05-14T08:44:45.518Z,4.00
2023-05-14T08:47:15.378Z,5.65
2023-05-14T08:49:44.835Z,4.97
2023-05-14T08:52:12.094Z,3.60
2023-05-14T08:54:40.024Z,3.78
2023-05-14T08:57:10.571Z,4.18
2023-05-14T08:59:37.447Z,3.75
2023-05-14T09:28:28.046Z,5.45
2023-05-14T09:30:55.134Z,5.65
2023-05-14T09:33:29.210Z,3.33
2023-05-14T09:36:01.322Z,3.85
2023-05-14T09:38:29.826Z,4.35
2023-05-14T09:40:57.408Z,4.63
2023-05-14T09:43:23.968Z,4.90
2023-05-14T09:48:17.586Z,4.57
2023-05-14T09:50:46.119Z,4.78
2023-05-14T09:53:14.172Z,4.25
2023-05-14T09:55:41.704Z,3.05
2023-05-14T09:58:08.194Z,3.65
2023-05-14T10:00:35.705Z,2.90
2023-05-14T10:03:07.998Z,3.22
2023-05-14T10:05:41.019Z,3.25
2023-05-14T10:08:12.572Z,3.53
2023-05-14T10:10:39.376Z,3.17
2023-05-14T10:13:14.577Z,3.30
2023-05-14T10:15:49.119Z,10.35
2023-05-14T10:18:22.972Z,3.22
2023-05-14T10:21:01.132Z,9.77
2023-05-14T10:23:27.865Z,3.58
2023-05-14T10:25:54.804Z,3.30
2023-05-14T10:28:21.399Z,2.72
2023-05-14T10:30:50.352Z,3.58
2023-05-14T10:33:18.490Z,6.22
2023-05-14T10:36:01.361Z,11.77
2023-05-14T10:38:29.503Z,9.25
2023-05-14T10:41:04.468Z,3.40
2023-05-14T10:43:35.909Z,3.33
2023-05-14T10:46:03.008Z,3.25
2023-05-14T10:48:29.726Z,2.75
2023-05-14T10:50:57.512Z,2.80
2023-05-14T10:53:33.568Z,2.97
2023-05-14T10:56:08.318Z,2.40
2023-05-14T10:58:37.379Z,3.05
2023-05-14T11:01:06.653Z,4.25
2023-05-14T11:03:39.758Z,7.28
2023-05-14T11:06:07.569Z,2.80
2023-05-14T11:08:34.126Z,2.60
2023-05-14T11:11:00.893Z,2.97
2023-05-14T11:13:27.995Z,2.88
2023-05-14T11:15:55.550Z,3.13
2023-05-14T11:18:33.407Z,2.80
2023-05-14T11:21:01.214Z,2.70
2023-05-14T11:23:28.654Z,3.40
2023-05-14T11:25:56.687Z,2.78
2023-05-14T11:28:24.463Z,2.78
2023-05-14T11:30:51.526Z,3.67
2023-05-14T11:33:19.342Z,6.68
2023-05-14T11:35:47.108Z,9.00
2023-05-14T11:38:15.475Z,7.57
2023-05-14T11:40:42.017Z,3.13
2023-05-14T11:45:36.409Z,3.07
2023-05-14T11:48:11.481Z,3.10
2023-05-14T11:50:38.098Z,2.90
2023-05-14T11:53:04.592Z,3.38
2023-05-14T11:58:00.334Z,3.42
2023-05-14T12:00:27.165Z,3.72
2023-05-14T12:02:54.533Z,5.70
2023-05-14T12:05:21.243Z,5.93
2023-05-14T12:07:47.958Z,4.93
2023-05-14T12:10:15.160Z,5.32
2023-05-14T12:12:46.090Z,3.72
2023-05-14T12:15:14.122Z,4.75
2023-05-14T12:17:41.283Z,4.40
2023-05-14T12:20:12.404Z,2.92
2023-05-14T12:22:39.464Z,3.30
2023-05-14T12:25:13.343Z,5.10
2023-05-14T12:27:40.199Z,2.75
2023-05-14T12:32:40.414Z,3.83
2023-05-14T12:35:07.206Z,2.97
2023-05-14T12:37:34.172Z,3.45
2023-05-14T12:40:00.713Z,3.13
2023-05-14T12:44:54.028Z,4.73
2023-05-14T12:47:20.989Z,4.43
2023-05-14T12:49:47.630Z,4.35
2023-05-14T12:54:43.668Z,6.80
2023-05-14T12:57:10.360Z,3.15
2023-05-14T12:59:37.028Z,3.03
2023-05-14T13:02:03.809Z,3.55
2023-05-14T13:04:30.425Z,3.42
2023-05-14T13:06:57.041Z,4.88
2023-05-14T13:11:50.058Z,3.88
2023-05-14T13:16:44.954Z,4.30
2023-05-14T13:19:11.693Z,5.53
2023-05-14T13:21:38.388Z,6.13
2023-05-14T13:24:05.228Z,5.50
2023-05-14T13:26:31.932Z,4.68
2023-05-14T13:28:58.537Z,40.80
2023-05-14T13:31:25.135Z,31.60
2023-05-14T13:33:51.741Z,4.07
2023-05-14T13:38:48.433Z,4.60
2023-05-14T13:41:14.989Z,5.00
2023-05-14T13:46:08.050Z,4.68
2023-05-14T13:48:36.439Z,12.45
2023-05-14T13:51:03.245Z,3.78
2023-05-14T13:53:30.542Z,4.50
2023-05-14T13:55:58.414Z,5.10
2023-05-14T13:58:25.598Z,5.28
2023-05-14T14:00:52.888Z,4.47
2023-05-14T14:03:19.735Z,4.28
2023-05-14T14:05:46.347Z,4.90
2023-05-14T14:08:23.452Z,5.57
2023-05-14T14:10:51.104Z,4.93
2023-05-14T14:13:17.644Z,5.75
2023-05-14T14:18:11.088Z,4.47
2023-05-14T14:20:38.188Z,4.47
2023-05-14T14:23:04.733Z,5.03
2023-05-14T14:27:57.796Z,4.20
2023-05-14T14:30:24.319Z,4.68
2023-05-14T14:35:18.885Z,4.60
2023-05-14T14:37:49.240Z,4.65
2023-05-14T14:40:16.845Z,7.38
2023-05-14T14:42:43.724Z,5.25
2023-05-14T14:45:11.226Z,3.97
2023-05-14T14:47:37.842Z,4.43
2023-05-14T14:50:05.157Z,4.38
2023-05-14T14:52:31.738Z,5.10
2023-05-14T14:57:24.903Z,4.57
2023-05-14T14:59:51.409Z,5.28
2023-05-14T15:04:44.466Z,4.03
2023-05-14T15:09:37.751Z,5.07
2023-05-14T15:12:05.046Z,4.38
2023-05-14T15:14:31.566Z,5.68
2023-05-14T15:19:24.806Z,6.03
2023-05-14T15:21:51.841Z,5.07
2023-05-14T15:24:18.520Z,5.30
2023-05-14T15:26:45.102Z,6.95
2023-05-14T15:29:11.730Z,5.90
2023-05-14T15:31:38.497Z,5.63
2023-05-14T15:34:05.144Z,6.50
2023-05-14T15:36:32.259Z,5.55
2023-05-14T15:38:59.524Z,41.53
2023-05-14T15:41:28.607Z,21.05
2023-05-14T15:43:56.046Z,19.45
2023-05-14T15:46:23.669Z,5.25
2023-05-14T15:48:50.352Z,8.68
2023-05-14T15:51:16.855Z,13.15
2023-05-14T15:56:10.124Z,5.10
2023-05-14T15:58:36.681Z,4.47
2023-05-14T16:03:29.953Z,9.63
2023-05-14T16:05:56.777Z,19.20
2023-05-14T16:08:23.303Z,7.85
2023-05-14T16:13:16.319Z,14.05
2023-05-14T16:15:42.986Z,6.43
2023-05-14T16:18:09.742Z,12.65
2023-05-14T16:20:36.299Z,28.02
2023-05-14T16:25:30.785Z,17.25
2023-05-14T16:27:57.448Z,11.43
2023-05-14T16:30:24.406Z,3.30
2023-05-14T16:32:51.137Z,7.40
2023-05-14T16:37:44.087Z,4.32
2023-05-14T16:45:05.470Z,6.17
2023-05-14T16:47:32.046Z,6.53
2023-05-14T16:49:58.608Z,3.22
2023-05-14T16:54:51.529Z,2.88
2023-05-14T16:59:44.532Z,3.58
2023-05-14T17:04:40.879Z,7.60
2023-05-14T17:07:07.719Z,36.92
2023-05-14T17:09:34.275Z,13.05
2023-05-14T17:14:27.679Z,9.65
2023-05-14T17:16:54.434Z,6.50
2023-05-14T17:19:21.071Z,23.42
2023-05-14T17:21:47.604Z,3.03
2023-05-14T17:26:40.659Z,5.18
2023-05-14T17:29:07.161Z,5.00
2023-05-14T17:34:00.691Z,2.70
2023-05-14T17:36:28.635Z,3.22
2023-05-14T17:38:55.257Z,2.17
2023-05-14T17:43:48.488Z,2.35
2023-05-14T17:46:15.111Z,1.90
2023-05-14T17:48:41.709Z,1.58
2023-05-14T17:53:34.816Z,2.10
2023-05-14T17:56:01.555Z,2.08
2023-05-14T17:58:28.255Z,2.15
2023-05-14T18:00:54.820Z,2.53
2023-05-14T18:03:21.560Z,2.15
2023-05-14T18:05:48.212Z,2.28
2023-05-14T18:08:15.334Z,2.38
2023-05-14T18:10:41.905Z,2.03
2023-05-14T18:15:36.424Z,2.60
2023-05-14T18:18:03.123Z,2.40
2023-05-14T18:20:29.624Z,2.67
2023-05-14T18:25:23.017Z,2.33
2023-05-14T18:27:49.982Z,2.10
2023-05-14T18:30:16.707Z,2.55
2023-05-14T18:32:44.600Z,2.50
2023-05-14T18:35:11.771Z,2.72
2023-05-14T18:37:38.405Z,2.35
2023-05-14T18:40:06.959Z,2.10
2023-05-14T18:42:34.463Z,2.58
2023-05-14T18:45:02.164Z,2.50
2023-05-14T18:47:28.771Z,2.50
2023-05-14T18:49:58.105Z,2.58
2023-05-14T18:52:26.136Z,2.78
2023-05-14T18:54:53.797Z,2.40
2023-05-14T18:57:21.119Z,2.75
2023-05-14T18:59:47.673Z,2.58
2023-05-14T19:04:51.189Z,3.33
2023-05-14T19:07:18.196Z,2.70
2023-05-14T19:09:45.677Z,2.65
2023-05-14T19:12:12.637Z,3.08
2023-05-14T19:14:39.237Z,3.10
2023-05-14T19:17:05.847Z,2.63
2023-05-14T19:19:32.648Z,2.67
2023-05-14T19:21:59.268Z,2.80
2023-05-14T19:24:25.886Z,3.10
2023-05-14T19:26:52.648Z,2.60
2023-05-14T19:29:19.193Z,2.90
2023-05-14T19:34:12.552Z,2.80
2023-05-14T19:39:05.982Z,2.58
2023-05-14T19:41:32.509Z,2.83
2023-05-14T19:46:26.186Z,2.75
2023-05-14T19:48:52.870Z,3.22
2023-05-14T19:51:19.794Z,3.83
2023-05-14T19:53:46.438Z,3.10
2023-05-14T19:58:39.480Z,3.45
2023-05-14T20:03:33.443Z,3.58
2023-05-14T20:06:00.206Z,3.65
2023-05-14T20:08:29.098Z,4.13
2023-05-14T20:10:55.779Z,3.70
2023-05-14T20:13:24.423Z,2.97
2023-05-14T20:15:51.834Z,3.50
2023-05-14T20:18:18.381Z,3.47
2023-05-14T20:23:11.348Z,3.70
2023-05-14T20:28:04.515Z,3.00
2023-05-14T20:30:31.133Z,4.50
2023-05-14T20:32:58.031Z,3.47
2023-05-14T20:35:24.715Z,3.92
2023-05-14T20:37:51.434Z,4.13
2023-05-14T20:40:18.133Z,3.17
2023-05-14T20:42:44.938Z,3.22
2023-05-14T20:45:11.578Z,4.10
2023-05-14T20:47:38.296Z,3.65
2023-05-14T20:50:05.376Z,4.00
2023-05-14T20:52:31.963Z,3.78
2023-05-14T20:57:28.607Z,3.83
2023-05-14T20:59:55.123Z,4.38
2023-05-14T21:04:48.363Z,4.15
2023-05-14T21:07:14.977Z,4.03
2023-05-14T21:12:08.499Z,3.97
2023-05-14T21:14:35.124Z,3.90
2023-05-14T21:17:01.674Z,4.50
2023-05-14T21:21:54.625Z,4.40
2023-05-14T21:26:47.781Z,3.75
2023-05-14T21:31:41.007Z,4.45
2023-05-14T21:34:07.682Z,4.47
2023-05-14T21:36:34.285Z,4.22
2023-05-14T21:39:00.971Z,4.22
2023-05-14T21:41:27.561Z,4.07
2023-05-14T21:46:20.628Z,5.43
2023-05-14T21:48:47.304Z,4.32
2023-05-14T21:51:13.966Z,4.80
2023-05-14T21:56:08.197Z,4.43
2023-05-14T21:58:35.744Z,4.60
2023-05-14T22:18:20.954Z,5.47
2023-05-14T22:23:14.209Z,5.65
2023-05-14T22:25:40.809Z,5.32
2023-05-14T22:28:07.460Z,5.18
2023-05-14T22:30:34.108Z,4.95
2023-05-14T22:33:00.811Z,5.38
2023-05-14T22:35:27.531Z,5.05
2023-05-14T22:37:54.246Z,4.88
2023-05-14T22:42:47.219Z,4.78
2023-05-14T22:47:40.598Z,5.22
2023-05-14T22:50:11.457Z,5.45
2023-05-14T22:52:39.167Z,4.82
2023-05-14T22:55:06.476Z,5.65
2023-05-14T22:57:35.982Z,5.70
2023-05-14T23:00:04.560Z,4.45
2023-05-14T23:02:31.189Z,5.20
2023-05-14T23:04:57.822Z,5.10
2023-05-14T23:09:50.830Z,4.45
2023-05-14T23:17:11.676Z,4.53
2023-05-14T23:19:38.490Z,5.30
2023-05-14T23:22:05.119Z,6.03
2023-05-14T23:24:31.688Z,5.28
2023-05-14T23:29:24.726Z,5.10
2023-05-14T23:31:51.462Z,4.10
2023-05-14T23:34:18.454Z,5.60
2023-05-14T23:36:45.551Z,5.75
2023-05-14T23:39:12.372Z,4.70
2023-05-14T23:41:38.916Z,5.15
2023-05-14T23:46:32.593Z,3.95
2023-05-14T23:48:59.519Z,4.00
2023-05-14T23:51:27.512Z,4.13
2023-05-14T23:53:58.233Z,4.95
2023-05-14T23:56:26.123Z,4.20
2023-05-14T23:58:52.981Z,4.35
